createdAt,value
2017-08-01T00:01:32.622Z,12.53
2017-08-01T00:04:01.269Z,11.20
2017-08-01T00:06:30.947Z,10.30
2017-08-01T00:08:59.686Z,7.03
2017-08-01T00:11:28.907Z,12.70
2017-08-01T00:13:58.109Z,11.70
2017-08-01T00:16:27.743Z,12.03
2017-08-01T00:18:57.441Z,14.20
2017-08-01T00:21:26.590Z,14.70
2017-08-01T00:23:56.176Z,11.17
2017-08-01T00:26:27.399Z,10.30
2017-08-01T00:28:56.665Z,10.20
2017-08-01T00:31:25.929Z,12.47
2017-08-01T00:33:55.273Z,9.10
2017-08-01T00:36:24.108Z,9.43
2017-08-01T00:38:53.346Z,14.33
2017-08-01T00:41:22.933Z,9.93
2017-08-01T00:43:52.016Z,8.20
2017-08-01T00:46:24.927Z,8.60
2017-08-01T00:48:54.092Z,17.10
2017-08-01T00:51:23.479Z,9.23
2017-08-01T00:53:52.126Z,10.60
2017-08-01T00:56:21.383Z,9.67
2017-08-01T00:58:50.972Z,11.27
2017-08-01T01:01:20.399Z,10.33
2017-08-01T01:03:50.326Z,10.17
2017-08-01T01:06:19.688Z,9.23
2017-08-01T01:08:49.249Z,9.87
2017-08-01T01:11:18.883Z,14.73
2017-08-01T01:13:47.770Z,9.20
2017-08-01T01:16:17.767Z,8.80
2017-08-01T01:18:46.850Z,9.30
2017-08-01T01:21:16.182Z,11.07
2017-08-01T01:23:45.602Z,8.13
2017-08-01T01:26:14.931Z,7.33
2017-08-01T01:28:44.640Z,9.80
2017-08-01T01:31:15.537Z,10.00
2017-08-01T01:33:44.996Z,13.83
2017-08-01T01:36:14.138Z,14.13
2017-08-01T01:38:43.565Z,15.17
2017-08-01T01:41:13.472Z,9.57
2017-08-01T01:43:42.738Z,9.83
2017-08-01T01:46:12.506Z,9.60
2017-08-01T01:48:41.613Z,11.20
2017-08-01T01:51:11.096Z,12.70
2017-08-01T01:53:40.605Z,8.57
2017-08-01T01:56:09.279Z,11.20
2017-08-01T01:58:38.309Z,11.17
2017-08-01T02:01:07.633Z,10.23
2017-08-01T02:03:37.115Z,8.33
2017-08-01T02:06:06.342Z,9.20
2017-08-01T02:08:35.730Z,11.27
2017-08-01T02:11:04.696Z,11.63
2017-08-01T02:13:34.229Z,9.83
2017-08-01T02:16:03.063Z,10.20
2017-08-01T02:18:32.599Z,11.00
2017-08-01T02:21:02.234Z,9.70
2017-08-01T02:23:31.648Z,10.97
2017-08-01T02:26:01.075Z,13.53
2017-08-01T02:28:30.376Z,11.23
2017-08-01T02:30:59.689Z,11.60
2017-08-01T02:33:29.100Z,14.10
2017-08-01T02:35:57.976Z,10.70
2017-08-01T02:38:27.476Z,10.80
2017-08-01T02:40:56.612Z,10.87
2017-08-01T02:43:26.175Z,18.90
2017-08-01T02:45:57.238Z,8.83
2017-08-01T02:48:26.656Z,8.17
2017-08-01T02:50:56.478Z,8.70
2017-08-01T02:53:25.946Z,13.20
2017-08-01T02:55:55.239Z,9.07
2017-08-01T02:58:24.770Z,10.63
2017-08-01T03:00:53.978Z,16.40
2017-08-01T03:03:23.635Z,13.53
2017-08-01T03:05:52.843Z,17.73
2017-08-01T03:08:21.973Z,23.13
2017-08-01T03:10:51.363Z,20.17
2017-08-01T03:13:20.532Z,23.23
2017-08-01T03:15:50.870Z,25.03
2017-08-01T03:18:20.178Z,21.73
2017-08-01T03:20:49.636Z,25.43
2017-08-01T03:23:18.855Z,23.43
2017-08-01T03:25:48.088Z,29.10
2017-08-01T03:28:17.645Z,26.73
2017-08-01T03:30:46.819Z,29.00
2017-08-01T03:33:16.250Z,24.87
2017-08-01T03:35:45.227Z,23.20
2017-08-01T03:38:14.627Z,19.20
2017-08-01T03:40:44.012Z,23.00
2017-08-01T03:43:13.331Z,23.83
2017-08-01T03:45:42.548Z,19.10
2017-08-01T03:48:11.636Z,20.20
2017-08-01T03:50:41.040Z,20.60
2017-08-01T03:53:10.642Z,27.03
2017-08-01T03:55:39.761Z,20.50
2017-08-01T03:58:08.753Z,22.00
2017-08-01T04:00:37.257Z,20.87
2017-08-01T04:03:06.394Z,22.37
2017-08-01T04:05:35.973Z,19.73
2017-08-01T04:08:06.225Z,20.37
2017-08-01T04:10:36.104Z,19.63
2017-08-01T04:13:05.246Z,19.83
2017-08-01T04:15:33.773Z,19.90
2017-08-01T04:18:02.633Z,20.20
2017-08-01T04:20:32.703Z,20.70
2017-08-01T04:23:02.408Z,19.97
2017-08-01T04:25:31.867Z,21.40
2017-08-01T04:28:01.571Z,17.90
2017-08-01T04:30:30.725Z,22.97
2017-08-01T04:33:00.177Z,23.50
2017-08-01T04:35:30.419Z,18.70
2017-08-01T04:37:59.594Z,21.70
2017-08-01T04:40:29.172Z,18.53
2017-08-01T04:42:59.667Z,22.30
2017-08-01T04:45:29.360Z,18.27
2017-08-01T04:47:58.251Z,17.30
2017-08-01T04:50:27.506Z,15.30
2017-08-01T04:52:56.599Z,15.00
2017-08-01T04:55:26.968Z,16.90
2017-08-01T04:57:56.417Z,19.83
2017-08-01T05:00:25.613Z,21.33
2017-08-01T05:02:54.731Z,15.77
2017-08-01T05:05:24.667Z,14.13
2017-08-01T05:07:54.118Z,15.00
2017-08-01T05:10:23.239Z,15.67
2017-08-01T05:12:52.267Z,16.47
2017-08-01T05:15:22.105Z,17.00
2017-08-01T05:17:50.177Z,16.07
2017-08-01T05:20:20.182Z,16.47
2017-08-01T05:22:49.545Z,16.30
2017-08-01T05:25:19.040Z,21.17
2017-08-01T05:27:48.800Z,16.10
2017-08-01T05:30:17.734Z,16.83
2017-08-01T05:32:46.901Z,13.07
2017-08-01T05:35:15.628Z,17.60
2017-08-01T05:37:44.966Z,15.00
2017-08-01T05:40:14.479Z,18.43
2017-08-01T05:42:43.418Z,15.30
2017-08-01T05:45:12.691Z,18.17
2017-08-01T05:47:42.164Z,21.80
2017-08-01T05:50:10.825Z,15.80
2017-08-01T05:52:40.403Z,17.23
2017-08-01T05:55:09.771Z,14.90
2017-08-01T05:57:38.843Z,15.47
2017-08-01T06:00:08.172Z,17.87
2017-08-01T06:02:37.214Z,17.10
2017-08-01T06:10:23.091Z,16.50
2017-08-01T06:12:52.699Z,21.43
2017-08-01T06:15:22.230Z,22.93
2017-08-01T06:17:52.219Z,19.43
2017-08-01T06:20:21.466Z,17.07
2017-08-01T06:22:50.471Z,17.67
2017-08-01T06:25:19.979Z,16.70
2017-08-01T06:27:49.217Z,15.63
2017-08-01T06:30:18.525Z,17.70
2017-08-01T06:32:46.020Z,13.13
2017-08-01T06:35:15.247Z,14.80
2017-08-01T06:37:44.855Z,13.50
2017-08-01T06:40:13.974Z,14.10
2017-08-01T06:42:43.485Z,13.60
2017-08-01T06:45:12.722Z,14.93
2017-08-01T06:47:42.254Z,16.97
2017-08-01T06:50:11.721Z,14.37
2017-08-01T06:52:40.657Z,21.77
2017-08-01T06:55:10.005Z,16.77
2017-08-01T06:57:39.512Z,13.40
2017-08-01T07:00:08.352Z,12.57
2017-08-01T07:02:38.403Z,12.00
2017-08-01T07:05:08.281Z,9.80
2017-08-01T07:07:37.854Z,11.73
2017-08-01T07:10:06.660Z,12.23
2017-08-01T07:12:36.193Z,13.93
2017-08-01T07:15:05.165Z,11.93
2017-08-01T07:17:34.617Z,10.70
2017-08-01T07:20:04.548Z,10.07
2017-08-01T07:22:33.688Z,15.70
2017-08-01T07:25:03.006Z,10.93
2017-08-01T07:27:32.259Z,16.80
2017-08-01T07:30:01.358Z,12.70
2017-08-01T07:32:30.795Z,10.67
2017-08-01T07:34:59.834Z,12.50
2017-08-01T07:37:29.011Z,11.50
2017-08-01T07:39:58.138Z,11.00
2017-08-01T07:42:28.661Z,15.53
2017-08-01T07:44:57.865Z,9.20
2017-08-01T07:47:29.419Z,11.60
2017-08-01T07:49:58.475Z,18.83
2017-08-01T07:52:29.398Z,12.30
2017-08-01T07:54:59.910Z,15.87
2017-08-01T07:57:29.815Z,21.23
2017-08-01T08:00:00.550Z,9.73
2017-08-01T08:02:30.935Z,11.80
2017-08-01T08:05:01.702Z,8.67
2017-08-01T08:07:31.305Z,11.97
2017-08-01T08:10:02.167Z,9.57
2017-08-01T08:12:32.213Z,10.17
2017-08-01T08:15:08.222Z,6.73
2017-08-01T08:17:37.390Z,8.90
2017-08-01T08:20:06.706Z,8.03
2017-08-01T08:22:35.773Z,10.40
2017-08-01T08:25:05.307Z,13.67
2017-08-01T08:27:34.894Z,11.07
2017-08-01T08:30:04.138Z,15.97
2017-08-01T08:32:33.849Z,13.27
2017-08-01T08:35:02.920Z,9.00
2017-08-01T08:37:32.622Z,9.33
2017-08-01T08:40:03.408Z,11.07
2017-08-01T08:42:33.357Z,8.57
2017-08-01T08:45:03.297Z,9.00
2017-08-01T08:47:33.715Z,7.67
2017-08-01T08:50:05.025Z,8.17
2017-08-01T08:52:36.377Z,11.50
2017-08-01T08:55:06.743Z,7.90
2017-08-01T08:57:37.866Z,7.43
2017-08-01T09:00:07.595Z,8.60
2017-08-01T09:02:38.062Z,14.40
2017-08-01T09:05:07.849Z,7.37
2017-08-01T09:07:36.916Z,6.27
2017-08-01T09:10:07.680Z,6.67
2017-08-01T09:12:38.022Z,6.00
2017-08-01T09:15:07.338Z,9.77
2017-08-01T09:17:37.301Z,9.57
2017-08-01T09:20:06.888Z,9.60
2017-08-01T09:22:37.540Z,10.17
2017-08-01T09:25:06.968Z,9.73
2017-08-01T09:27:37.054Z,9.80
2017-08-01T09:30:06.744Z,6.97
2017-08-01T09:32:36.366Z,8.77
2017-08-01T09:35:06.766Z,8.63
2017-08-01T09:37:35.978Z,9.80
2017-08-01T09:40:05.799Z,6.53
2017-08-01T09:42:35.798Z,17.23
2017-08-01T09:45:05.164Z,10.80
2017-08-01T09:47:34.691Z,10.60
2017-08-01T09:50:03.824Z,10.50
2017-08-01T09:52:32.650Z,8.20
2017-08-01T09:55:01.987Z,9.63
2017-08-01T09:57:31.740Z,6.27
2017-08-01T10:00:01.497Z,6.43
2017-08-01T10:02:30.796Z,10.63
2017-08-01T10:04:59.861Z,6.73
2017-08-01T10:07:29.388Z,7.80
2017-08-01T10:09:59.125Z,8.03
2017-08-01T10:12:28.563Z,6.40
2017-08-01T10:14:58.228Z,6.37
2017-08-01T10:17:27.660Z,9.57
2017-08-01T10:19:57.151Z,6.80
2017-08-01T10:22:26.730Z,6.87
2017-08-01T10:24:56.084Z,7.53
2017-08-01T10:27:25.710Z,5.67
2017-08-01T10:29:55.467Z,6.23
2017-08-01T10:32:25.251Z,7.80
2017-08-01T10:34:54.469Z,10.53
2017-08-01T10:37:24.089Z,11.73
2017-08-01T10:39:53.257Z,9.63
2017-08-01T10:42:24.492Z,8.67
2017-08-01T10:44:53.917Z,8.37
2017-08-01T10:47:24.046Z,9.50
2017-08-01T10:49:53.464Z,6.33
2017-08-01T10:52:22.819Z,6.97
2017-08-01T10:54:52.391Z,7.13
2017-08-01T10:57:21.423Z,13.40
2017-08-01T10:59:50.932Z,8.03
2017-08-01T11:02:20.034Z,9.80
2017-08-01T11:04:49.493Z,7.73
2017-08-01T11:07:18.797Z,12.57
2017-08-01T11:09:48.326Z,10.53
2017-08-01T11:12:17.974Z,7.47
2017-08-01T11:14:46.958Z,8.50
2017-08-01T11:17:16.491Z,7.80
2017-08-01T11:19:45.718Z,6.87
2017-08-01T11:22:14.851Z,11.37
2017-08-01T11:24:44.295Z,7.63
2017-08-01T11:27:13.644Z,6.40
2017-08-01T11:29:43.914Z,7.93
2017-08-01T11:32:13.339Z,9.30
2017-08-01T11:34:42.803Z,21.77
2017-08-01T11:42:32.404Z,7.67
2017-08-01T11:45:02.863Z,8.43
2017-08-01T11:47:32.230Z,10.03
2017-08-01T11:50:01.555Z,11.77
2017-08-01T11:52:31.096Z,10.80
2017-08-01T11:55:00.715Z,11.37
2017-08-01T11:57:30.390Z,7.70
2017-08-01T12:00:01.151Z,5.83
2017-08-01T12:02:30.656Z,11.00
2017-08-01T12:04:59.402Z,6.07
2017-08-01T12:07:29.848Z,9.50
2017-08-01T12:10:00.281Z,9.33
2017-08-01T12:12:29.215Z,10.93
2017-08-01T12:14:58.143Z,7.77
2017-08-01T12:17:27.627Z,6.83
2017-08-01T12:19:56.862Z,16.07
2017-08-01T12:22:26.452Z,8.50
2017-08-01T12:24:55.487Z,7.67
2017-08-01T12:27:24.617Z,6.33
2017-08-01T12:29:54.114Z,8.43
2017-08-01T12:32:23.284Z,8.07
2017-08-01T12:34:52.875Z,6.47
2017-08-01T12:37:22.122Z,7.13
2017-08-01T12:39:51.481Z,8.33
2017-08-01T12:42:20.966Z,6.70
2017-08-01T12:44:50.271Z,9.47
2017-08-01T12:47:19.835Z,8.37
2017-08-01T12:49:50.238Z,8.80
2017-08-01T12:52:19.839Z,7.93
2017-08-01T12:54:49.029Z,11.13
2017-08-01T12:57:18.253Z,6.80
2017-08-01T12:59:47.541Z,6.67
2017-08-01T13:02:16.734Z,10.33
2017-08-01T13:04:46.168Z,6.27
2017-08-01T13:07:15.808Z,7.57
2017-08-01T13:09:45.078Z,7.43
2017-08-01T13:12:14.322Z,8.40
2017-08-01T13:14:44.154Z,12.70
2017-08-01T13:17:14.075Z,7.33
2017-08-01T13:19:43.029Z,6.07
2017-08-01T13:22:12.644Z,6.90
2017-08-01T13:24:41.808Z,12.43
2017-08-01T13:27:11.067Z,8.83
2017-08-01T13:29:40.267Z,6.40
2017-08-01T13:32:08.445Z,6.93
2017-08-01T13:34:37.155Z,11.33
2017-08-01T13:37:07.654Z,7.20
2017-08-01T13:39:35.644Z,7.03
2017-08-01T13:42:04.427Z,5.37
2017-08-01T13:44:32.611Z,5.20
2017-08-01T13:47:01.726Z,6.10
2017-08-01T13:49:30.849Z,5.90
2017-08-01T13:52:00.199Z,7.77
2017-08-01T13:54:30.283Z,6.30
2017-08-01T13:56:59.395Z,8.20
2017-08-01T13:59:28.616Z,8.33
2017-08-01T14:01:57.639Z,7.13
2017-08-01T14:04:26.188Z,6.93
2017-08-01T14:06:55.693Z,9.77
2017-08-01T14:09:24.039Z,9.73
2017-08-01T14:11:53.291Z,8.30
2017-08-01T14:14:22.786Z,10.30
2017-08-01T14:16:52.467Z,6.70
2017-08-01T14:19:21.770Z,8.70
2017-08-01T14:21:51.106Z,8.80
2017-08-01T14:24:20.304Z,10.27
2017-08-01T14:26:49.699Z,10.73
2017-08-01T14:29:19.127Z,10.80
2017-08-01T14:31:48.296Z,9.07
2017-08-01T14:34:17.568Z,11.10
2017-08-01T14:36:46.850Z,7.80
2017-08-01T14:39:15.887Z,7.17
2017-08-01T14:41:45.259Z,8.00
2017-08-01T14:44:15.375Z,9.63
2017-08-01T14:46:44.737Z,8.10
2017-08-01T14:49:13.406Z,13.27
2017-08-01T14:51:42.545Z,6.50
2017-08-01T14:54:12.330Z,6.60
2017-08-01T14:56:40.786Z,6.73
2017-08-01T14:59:10.725Z,6.80
2017-08-01T15:01:40.196Z,12.87
2017-08-01T15:04:09.390Z,11.40
2017-08-01T15:06:41.779Z,7.83
2017-08-01T15:09:11.225Z,10.17
2017-08-01T15:11:40.739Z,9.70
2017-08-01T15:14:09.620Z,13.70
2017-08-01T15:16:38.844Z,15.23
2017-08-01T15:19:08.847Z,20.77
2017-08-01T15:21:38.204Z,9.60
2017-08-01T15:24:07.424Z,13.00
2017-08-01T15:26:36.567Z,4.27
2017-08-01T15:29:05.682Z,7.07
2017-08-01T15:31:34.889Z,5.53
2017-08-01T15:34:04.195Z,4.83
2017-08-01T15:36:33.438Z,15.70
2017-08-01T15:39:04.138Z,8.37
2017-08-01T15:41:33.291Z,7.23
2017-08-01T15:44:03.732Z,13.70
2017-08-01T15:46:33.465Z,7.37
2017-08-01T15:49:03.230Z,14.40
2017-08-01T15:51:32.520Z,9.13
2017-08-01T15:54:01.692Z,7.90
2017-08-01T15:56:31.324Z,8.93
2017-08-01T15:59:00.578Z,7.87
2017-08-01T16:01:31.443Z,9.00
2017-08-01T16:04:01.187Z,7.20
2017-08-01T16:06:30.270Z,5.17
2017-08-01T16:08:59.623Z,8.73
2017-08-01T16:11:29.086Z,5.50
2017-08-01T16:13:58.272Z,8.20
2017-08-01T16:16:28.468Z,5.60
2017-08-01T16:19:01.035Z,7.30
2017-08-01T16:21:33.373Z,6.60
2017-08-01T16:24:02.444Z,8.13
2017-08-01T16:26:31.866Z,5.90
2017-08-01T16:29:02.499Z,9.53
2017-08-01T16:31:32.304Z,5.40
2017-08-01T16:34:01.646Z,8.13
2017-08-01T16:57:44.768Z,8.90
2017-08-01T17:01:00.056Z,13.80
2017-08-01T17:03:29.550Z,11.10
2017-08-01T17:05:58.919Z,9.20
2017-08-01T17:08:27.779Z,9.80
2017-08-01T17:42:36.062Z,8.20
2017-08-01T17:45:06.488Z,9.77
2017-08-01T17:47:35.732Z,8.97
2017-08-01T17:50:04.809Z,9.80
2017-08-01T17:52:35.089Z,10.43
2017-08-01T17:55:04.335Z,8.17
2017-08-01T17:57:34.057Z,8.30
2017-08-01T18:00:03.285Z,9.67
2017-08-01T18:02:32.497Z,7.47
2017-08-01T18:05:02.020Z,13.40
2017-08-01T18:07:31.096Z,9.63
2017-08-01T18:10:00.271Z,11.27
2017-08-01T18:12:29.925Z,7.70
2017-08-01T18:14:59.195Z,11.70
2017-08-01T18:17:28.755Z,14.40
2017-08-01T18:19:58.259Z,17.50
2017-08-01T18:22:27.514Z,13.73
2017-08-01T18:24:57.159Z,15.97
2017-08-01T18:27:27.281Z,17.60
2017-08-01T18:29:56.770Z,12.37
2017-08-01T18:32:27.164Z,10.33
2017-08-01T18:34:56.623Z,14.77
2017-08-01T18:37:24.102Z,20.93
2017-08-01T18:39:51.641Z,17.07
2017-08-01T18:42:19.062Z,12.00
2017-08-01T18:44:46.751Z,12.53
2017-08-01T18:47:14.405Z,10.73
2017-08-01T18:49:42.023Z,11.80
2017-08-01T18:52:09.625Z,10.47
2017-08-01T18:54:37.392Z,10.97
2017-08-01T18:57:05.108Z,16.60
2017-08-01T18:59:32.603Z,16.93
2017-08-01T19:02:00.337Z,14.30
2017-08-01T19:04:28.135Z,13.57
2017-08-01T19:06:55.876Z,8.83
2017-08-01T19:09:23.395Z,10.03
2017-08-01T19:11:50.961Z,14.70
2017-08-01T19:14:18.701Z,9.00
2017-08-01T19:16:46.517Z,12.83
2017-08-01T19:19:14.203Z,10.80
2017-08-01T19:21:41.672Z,13.87
2017-08-01T19:24:09.591Z,11.57
2017-08-01T19:26:37.383Z,14.80
2017-08-01T19:29:04.836Z,12.67
2017-08-01T19:31:33.004Z,15.40
2017-08-01T19:34:00.768Z,11.17
